sensor_id;sensor_type;location;lat;lon;timestamp;pressure;altitude;pressure_sealevel;temperature;humidity
36798;BME280;22748;8.426;99.512;2023-05-22T00:00:20;100798.78;;;29.74;64.38
36798;BME280;22748;8.426;99.512;2023-05-22T00:02:51;100807.66;;;29.74;64.57
36798;BME280;22748;8.426;99.512;2023-05-22T00:05:37;100809.78;;;29.72;65.00
36798;BME280;22748;8.426;99.512;2023-05-22T00:08:07;100819.50;;;29.73;65.55
36798;BME280;22748;8.426;99.512;2023-05-22T00:10:40;100817.44;;;29.69;65.39
36798;BME280;22748;8.426;99.512;2023-05-22T00:13:11;100831.50;;;29.78;65.42
36798;BME280;22748;8.426;99.512;2023-05-22T00:15:52;100834.19;;;29.78;65.94
36798;BME280;22748;8.426;99.512;2023-05-22T00:18:22;100835.81;;;29.79;65.94
36798;BME280;22748;8.426;99.512;2023-05-22T00:21:06;100847.22;;;29.81;66.07
36798;BME280;22748;8.426;99.512;2023-05-22T00:23:38;100849.28;;;29.79;66.02
36798;BME280;22748;8.426;99.512;2023-05-22T00:26:13;100857.16;;;29.87;65.58
36798;BME280;22748;8.426;99.512;2023-05-22T00:28:44;100863.59;;;29.86;65.69
36798;BME280;22748;8.426;99.512;2023-05-22T00:31:14;100861.69;;;29.93;65.67
36798;BME280;22748;8.426;99.512;2023-05-22T00:33:45;100869.34;;;29.96;65.50
36798;BME280;22748;8.426;99.512;2023-05-22T00:36:19;100875.34;;;29.98;65.38
36798;BME280;22748;8.426;99.512;2023-05-22T00:38:50;100885.47;;;30.03;65.48
36798;BME280;22748;8.426;99.512;2023-05-22T00:41:20;100881.56;;;30.05;65.53
36798;BME280;22748;8.426;99.512;2023-05-22T00:43:51;100876.78;;;30.07;65.86
36798;BME280;22748;8.426;99.512;2023-05-22T00:46:22;100876.78;;;30.07;65.91
36798;BME280;22748;8.426;99.512;2023-05-22T00:48:55;100870.34;;;30.08;65.71
36798;BME280;22748;8.426;99.512;2023-05-22T00:51:28;100857.50;;;30.10;65.77
36798;BME280;22748;8.426;99.512;2023-05-22T00:53:59;100872.00;;;30.09;65.88
36798;BME280;22748;8.426;99.512;2023-05-22T00:56:30;100870.34;;;30.08;65.89
36798;BME280;22748;8.426;99.512;2023-05-22T00:58:59;100867.66;;;30.08;65.84
36798;BME280;22748;8.426;99.512;2023-05-22T01:01:31;100866.41;;;30.11;66.20
36798;BME280;22748;8.426;99.512;2023-05-22T01:04:04;100864.13;;;30.14;65.80
36798;BME280;22748;8.426;99.512;2023-05-22T01:06:38;100867.44;;;30.17;65.81
36798;BME280;22748;8.426;99.512;2023-05-22T01:09:09;100870.97;;;30.10;65.76
36798;BME280;22748;8.426;99.512;2023-05-22T01:11:47;100873.22;;;30.13;65.41
36798;BME280;22748;8.426;99.512;2023-05-22T01:14:24;100877.16;;;30.18;65.71
36798;BME280;22748;8.426;99.512;2023-05-22T01:17:05;100876.13;;;30.19;65.75
36798;BME280;22748;8.426;99.512;2023-05-22T01:19:58;100882.13;;;30.21;65.75
36798;BME280;22748;8.426;99.512;2023-05-22T01:23:00;100875.28;;;30.25;65.41
36798;BME280;22748;8.426;99.512;2023-05-22T01:26:05;100881.91;;;30.29;65.75
36798;BME280;22748;8.426;99.512;2023-05-22T01:29:13;100880.69;;;30.31;65.69
36798;BME280;22748;8.426;99.512;2023-05-22T01:31:47;100885.22;;;30.31;65.89
36798;BME280;22748;8.426;99.512;2023-05-22T01:34:19;100882.31;;;30.39;65.43
36798;BME280;22748;8.426;99.512;2023-05-22T01:36:52;100895.94;;;30.44;65.33
36798;BME280;22748;8.426;99.512;2023-05-22T01:39:24;100902.56;;;30.48;65.14
36798;BME280;22748;8.426;99.512;2023-05-22T01:41:55;100904.44;;;30.48;65.27
36798;BME280;22748;8.426;99.512;2023-05-22T01:44:25;100898.00;;;30.55;65.15
36798;BME280;22748;8.426;99.512;2023-05-22T01:46:57;100892.78;;;30.61;65.13
36798;BME280;22748;8.426;99.512;2023-05-22T01:49:32;100902.50;;;30.62;64.73
36798;BME280;22748;8.426;99.512;2023-05-22T01:52:09;100892.56;;;30.69;64.66
36798;BME280;22748;8.426;99.512;2023-05-22T02:01:08;100901.66;;;30.68;64.78
36798;BME280;22748;8.426;99.512;2023-05-22T02:03:42;100898.56;;;30.71;64.66
36798;BME280;22748;8.426;99.512;2023-05-22T02:06:13;100905.44;;;30.60;65.10
36798;BME280;22748;8.426;99.512;2023-05-22T02:08:48;100903.38;;;30.62;65.36
36798;BME280;22748;8.426;99.512;2023-05-22T02:11:20;100901.00;;;30.72;64.95
36798;BME280;22748;8.426;99.512;2023-05-22T02:13:53;100914.03;;;30.82;64.64
36798;BME280;22748;8.426;99.512;2023-05-22T02:16:24;100917.75;;;30.81;64.99
36798;BME280;22748;8.426;99.512;2023-05-22T02:19:01;100917.38;;;30.78;64.21
36798;BME280;22748;8.426;99.512;2023-05-22T02:21:33;100919.84;;;30.79;63.29
36798;BME280;22748;8.426;99.512;2023-05-22T02:24:04;100928.16;;;30.84;63.51
36798;BME280;22748;8.426;99.512;2023-05-22T02:26:35;100932.09;;;30.88;63.41
36798;BME280;22748;8.426;99.512;2023-05-22T02:29:05;100932.28;;;30.93;63.57
36798;BME280;22748;8.426;99.512;2023-05-22T02:31:35;100924.78;;;30.95;63.51
36798;BME280;22748;8.426;99.512;2023-05-22T02:34:08;100927.66;;;31.01;63.17
36798;BME280;22748;8.426;99.512;2023-05-22T02:36:40;100929.53;;;31.00;63.45
36798;BME280;22748;8.426;99.512;2023-05-22T02:39:10;100928.31;;;30.96;63.86
36798;BME280;22748;8.426;99.512;2023-05-22T02:41:41;100925.22;;;30.92;63.01
36798;BME280;22748;8.426;99.512;2023-05-22T02:44:12;100923.94;;;31.02;63.42
36798;BME280;22748;8.426;99.512;2023-05-22T02:46:42;100920.63;;;31.00;63.18
36798;BME280;22748;8.426;99.512;2023-05-22T02:49:15;100918.09;;;31.05;63.39
36798;BME280;22748;8.426;99.512;2023-05-22T02:51:47;100916.78;;;31.14;63.28
36798;BME280;22748;8.426;99.512;2023-05-22T02:54:17;100916.38;;;31.17;63.01
36798;BME280;22748;8.426;99.512;2023-05-22T02:56:48;100909.03;;;31.24;63.15
36798;BME280;22748;8.426;99.512;2023-05-22T02:59:18;100910.06;;;31.30;62.90
36798;BME280;22748;8.426;99.512;2023-05-22T03:01:49;100915.81;;;31.33;62.79
36798;BME280;22748;8.426;99.512;2023-05-22T03:04:23;100916.47;;;31.29;63.03
36798;BME280;22748;8.426;99.512;2023-05-22T03:06:54;100915.50;;;31.23;63.23
36798;BME280;22748;8.426;99.512;2023-05-22T03:09:24;100915.81;;;31.33;62.50
36798;BME280;22748;8.426;99.512;2023-05-22T03:11:55;100913.91;;;31.41;62.02
36798;BME280;22748;8.426;99.512;2023-05-22T03:14:27;100915.38;;;31.43;62.33
36798;BME280;22748;8.426;99.512;2023-05-22T03:16:58;100916.66;;;31.34;62.51
36798;BME280;22748;8.426;99.512;2023-05-22T03:19:29;100912.69;;;31.36;61.82
36798;BME280;22748;8.426;99.512;2023-05-22T03:22:02;100911.63;;;31.37;61.28
36798;BME280;22748;8.426;99.512;2023-05-22T03:24:33;100914.72;;;31.48;61.14
36798;BME280;22748;8.426;99.512;2023-05-22T03:27:03;100917.75;;;31.58;61.56
36798;BME280;22748;8.426;99.512;2023-05-22T03:29:34;100924.03;;;31.52;61.51
36798;BME280;22748;8.426;99.512;2023-05-22T03:32:04;100914.59;;;31.61;61.22
36798;BME280;22748;8.426;99.512;2023-05-22T03:34:37;100915.78;;;31.47;61.93
36798;BME280;22748;8.426;99.512;2023-05-22T03:37:07;100916.97;;;31.51;61.23
36798;BME280;22748;8.426;99.512;2023-05-22T03:39:39;100923.91;;;31.65;61.13
36798;BME280;22748;8.426;99.512;2023-05-22T03:42:10;100920.13;;;31.73;60.47
36798;BME280;22748;8.426;99.512;2023-05-22T03:44:40;100914.66;;;31.80;60.66
36798;BME280;22748;8.426;99.512;2023-05-22T03:47:10;100911.50;;;31.83;60.83
36798;BME280;22748;8.426;99.512;2023-05-22T03:49:42;100896.66;;;31.92;60.47
36798;BME280;22748;8.426;99.512;2023-05-22T03:52:12;100902.88;;;31.99;60.50
36798;BME280;22748;8.426;99.512;2023-05-22T03:54:45;100893.28;;;31.96;60.75
36798;BME280;22748;8.426;99.512;2023-05-22T03:57:16;100887.94;;;31.90;60.50
36798;BME280;22748;8.426;99.512;2023-05-22T03:59:47;100891.44;;;31.97;59.72
36798;BME280;22748;8.426;99.512;2023-05-22T04:02:19;100878.31;;;32.01;59.30
36798;BME280;22748;8.426;99.512;2023-05-22T04:04:55;100880.41;;;31.98;59.68
36798;BME280;22748;8.426;99.512;2023-05-22T04:07:27;100880.25;;;32.12;59.89
36798;BME280;22748;8.426;99.512;2023-05-22T04:09:59;100879.00;;;32.14;59.71
36798;BME280;22748;8.426;99.512;2023-05-22T04:12:30;100881.84;;;32.20;59.31
36798;BME280;22748;8.426;99.512;2023-05-22T04:15:01;100878.69;;;32.23;59.42
36798;BME280;22748;8.426;99.512;2023-05-22T04:17:32;100884.84;;;32.11;59.61
36798;BME280;22748;8.426;99.512;2023-05-22T04:20:06;100874.03;;;32.11;59.50
36798;BME280;22748;8.426;99.512;2023-05-22T04:22:37;100869.41;;;32.18;59.39
36798;BME280;22748;8.426;99.512;2023-05-22T04:25:08;100871.44;;;32.23;59.40
36798;BME280;22748;8.426;99.512;2023-05-22T04:27:39;100868.72;;;32.23;59.20
36798;BME280;22748;8.426;99.512;2023-05-22T04:30:10;100871.03;;;32.20;59.30
36798;BME280;22748;8.426;99.512;2023-05-22T04:32:40;100868.47;;;32.25;58.97
36798;BME280;22748;8.426;99.512;2023-05-22T04:35:13;100867.56;;;32.31;58.83
36798;BME280;22748;8.426;99.512;2023-05-22T04:37:46;100860.19;;;32.38;58.54
36798;BME280;22748;8.426;99.512;2023-05-22T04:40:18;100861.19;;;32.44;58.14
36798;BME280;22748;8.426;99.512;2023-05-22T04:42:48;100857.44;;;32.45;58.59
36798;BME280;22748;8.426;99.512;2023-05-22T04:45:21;100846.69;;;32.38;58.54
36798;BME280;22748;8.426;99.512;2023-05-22T04:47:52;100855.25;;;32.35;58.04
36798;BME280;22748;8.426;99.512;2023-05-22T04:50:29;100848.97;;;32.23;58.05
36798;BME280;22748;8.426;99.512;2023-05-22T04:53:05;100845.22;;;32.24;58.28
36798;BME280;22748;8.426;99.512;2023-05-22T04:55:37;100843.56;;;32.23;58.19
36798;BME280;22748;8.426;99.512;2023-05-22T04:58:07;100850.25;;;32.20;58.24
36798;BME280;22748;8.426;99.512;2023-05-22T05:00:38;100836.50;;;32.22;58.07
36798;BME280;22748;8.426;99.512;2023-05-22T05:03:09;100844.31;;;32.30;57.87
36798;BME280;22748;8.426;99.512;2023-05-22T05:05:41;100834.53;;;32.29;57.66
36798;BME280;22748;8.426;99.512;2023-05-22T05:08:13;100828.69;;;32.32;57.79
36798;BME280;22748;8.426;99.512;2023-05-22T05:10:43;100821.63;;;32.31;57.58
36798;BME280;22748;8.426;99.512;2023-05-22T05:13:15;100810.41;;;32.46;56.88
36798;BME280;22748;8.426;99.512;2023-05-22T05:15:46;100806.13;;;32.56;56.51
36798;BME280;22748;8.426;99.512;2023-05-22T05:18:16;100795.59;;;32.67;56.53
36798;BME280;22748;8.426;99.512;2023-05-22T05:20:52;100785.97;;;32.71;55.97
36798;BME280;22748;8.426;99.512;2023-05-22T05:23:22;100782.91;;;32.79;56.34
36798;BME280;22748;8.426;99.512;2023-05-22T05:25:53;100780.81;;;32.81;56.15
36798;BME280;22748;8.426;99.512;2023-05-22T05:28:25;100774.47;;;32.87;55.83
36798;BME280;22748;8.426;99.512;2023-05-22T05:30:56;100777.06;;;32.94;55.66
36798;BME280;22748;8.426;99.512;2023-05-22T05:33:26;100781.19;;;32.96;55.61
36798;BME280;22748;8.426;99.512;2023-05-22T05:35:57;100775.06;;;33.01;55.90
36798;BME280;22748;8.426;99.512;2023-05-22T05:38:29;100784.84;;;33.02;55.93
36798;BME280;22748;8.426;99.512;2023-05-22T05:41:00;100799.19;;;33.03;56.42
36798;BME280;22748;8.426;99.512;2023-05-22T05:43:30;100805.41;;;32.91;56.78
36798;BME280;22748;8.426;99.512;2023-05-22T05:46:01;100829.38;;;32.88;56.90
36798;BME280;22748;8.426;99.512;2023-05-22T05:48:31;100842.91;;;32.88;58.02
36798;BME280;22748;8.426;99.512;2023-05-22T05:51:02;100856.41;;;32.76;58.96
36798;BME280;22748;8.426;99.512;2023-05-22T05:53:33;100846.38;;;32.65;59.68
36798;BME280;22748;8.426;99.512;2023-05-22T05:56:04;100828.44;;;32.52;58.90
36798;BME280;22748;8.426;99.512;2023-05-22T05:58:35;100809.50;;;32.22;60.33
36798;BME280;22748;8.426;99.512;2023-05-22T06:01:06;100801.84;;;32.00;60.47
36798;BME280;22748;8.426;99.512;2023-05-22T06:03:38;100797.63;;;31.86;59.60
36798;BME280;22748;8.426;99.512;2023-05-22T06:06:10;100798.59;;;31.91;59.44
36798;BME280;22748;8.426;99.512;2023-05-22T06:08:41;100792.00;;;31.87;59.60
36798;BME280;22748;8.426;99.512;2023-05-22T06:11:12;100791.63;;;31.84;59.74
36798;BME280;22748;8.426;99.512;2023-05-22T06:13:41;100792.81;;;31.88;60.47
36798;BME280;22748;8.426;99.512;2023-05-22T06:16:11;100780.53;;;31.73;60.80
36798;BME280;22748;8.426;99.512;2023-05-22T06:18:43;100773.47;;;31.72;60.50
36798;BME280;22748;8.426;99.512;2023-05-22T06:21:21;100775.34;;;31.72;60.47
36798;BME280;22748;8.426;99.512;2023-05-22T06:23:52;100769.41;;;31.63;60.87
36798;BME280;22748;8.426;99.512;2023-05-22T06:26:23;100758.41;;;31.40;60.68
36798;BME280;22748;8.426;99.512;2023-05-22T06:28:54;100762.56;;;31.42;60.69
36798;BME280;22748;8.426;99.512;2023-05-22T06:31:24;100760.50;;;31.37;61.01
36798;BME280;22748;8.426;99.512;2023-05-22T06:33:55;100761.41;;;31.31;61.13
36798;BME280;22748;8.426;99.512;2023-05-22T06:36:28;100766.78;;;31.31;61.38
36798;BME280;22748;8.426;99.512;2023-05-22T06:38:58;100754.09;;;31.39;61.79
36798;BME280;22748;8.426;99.512;2023-05-22T06:41:30;100751.56;;;31.44;60.99
36798;BME280;22748;8.426;99.512;2023-05-22T06:44:01;100748.44;;;31.40;61.53
36798;BME280;22748;8.426;99.512;2023-05-22T06:46:32;100747.47;;;31.34;61.59
36798;BME280;22748;8.426;99.512;2023-05-22T06:49:05;100738.31;;;31.35;61.48
36798;BME280;22748;8.426;99.512;2023-05-22T06:51:37;100739.88;;;31.25;62.41
36798;BME280;22748;8.426;99.512;2023-05-22T06:54:09;100736.75;;;31.28;62.14
36798;BME280;22748;8.426;99.512;2023-05-22T06:56:41;100740.25;;;31.10;63.20
36798;BME280;22748;8.426;99.512;2023-05-22T06:59:13;100747.88;;;31.13;63.49
36798;BME280;22748;8.426;99.512;2023-05-22T07:01:43;100753.13;;;31.08;62.87
36798;BME280;22748;8.426;99.512;2023-05-22T07:04:12;100753.88;;;31.15;62.97
36798;BME280;22748;8.426;99.512;2023-05-22T07:06:44;100753.81;;;30.96;62.91
36798;BME280;22748;8.426;99.512;2023-05-22T07:09:15;100746.84;;;30.89;63.00
36798;BME280;22748;8.426;99.512;2023-05-22T07:11:46;100743.56;;;30.80;63.69
36798;BME280;22748;8.426;99.512;2023-05-22T07:14:16;100757.63;;;30.89;63.74
36798;BME280;22748;8.426;99.512;2023-05-22T07:16:47;100785.91;;;31.05;63.56
36798;BME280;22748;8.426;99.512;2023-05-22T07:19:17;100802.38;;;31.22;63.25
36798;BME280;22748;8.426;99.512;2023-05-22T07:21:49;100794.69;;;31.25;63.28
36798;BME280;22748;8.426;99.512;2023-05-22T07:24:20;100811.25;;;31.29;63.33
36798;BME280;22748;8.426;99.512;2023-05-22T07:26:51;100810.88;;;31.25;62.82
36798;BME280;22748;8.426;99.512;2023-05-22T07:29:27;100808.94;;;31.32;63.40
36798;BME280;22748;8.426;99.512;2023-05-22T07:32:01;100808.25;;;31.37;63.12
36798;BME280;22748;8.426;99.512;2023-05-22T07:34:31;100812.25;;;31.34;63.24
36798;BME280;22748;8.426;99.512;2023-05-22T07:37:06;100785.84;;;31.36;63.40
36798;BME280;22748;8.426;99.512;2023-05-22T07:39:37;100780.69;;;31.35;63.55
36798;BME280;22748;8.426;99.512;2023-05-22T07:42:07;100766.78;;;31.31;63.57
36798;BME280;22748;8.426;99.512;2023-05-22T07:44:39;100747.91;;;31.31;63.18
36798;BME280;22748;8.426;99.512;2023-05-22T07:47:19;100733.59;;;31.31;63.17
36798;BME280;22748;8.426;99.512;2023-05-22T07:49:49;100729.47;;;31.28;63.78
36798;BME280;22748;8.426;99.512;2023-05-22T07:52:22;100719.97;;;31.26;63.86
36798;BME280;22748;8.426;99.512;2023-05-22T07:54:53;100713.28;;;31.28;63.98
36798;BME280;22748;8.426;99.512;2023-05-22T07:57:23;100704.97;;;31.30;63.32
36798;BME280;22748;8.426;99.512;2023-05-22T07:59:55;100704.59;;;31.26;63.58
36798;BME280;22748;8.426;99.512;2023-05-22T08:02:26;100694.78;;;31.32;63.85
36798;BME280;22748;8.426;99.512;2023-05-22T08:04:56;100686.50;;;31.27;63.88
36798;BME280;22748;8.426;99.512;2023-05-22T08:07:32;100670.56;;;31.25;63.56
36798;BME280;22748;8.426;99.512;2023-05-22T08:10:06;100672.50;;;31.18;63.62
36798;BME280;22748;8.426;99.512;2023-05-22T08:12:42;100680.59;;;31.18;63.41
36798;BME280;22748;8.426;99.512;2023-05-22T08:15:12;100685.38;;;30.98;63.42
36798;BME280;22748;8.426;99.512;2023-05-22T08:17:43;100686.28;;;31.10;62.94
36798;BME280;22748;8.426;99.512;2023-05-22T08:20:14;100698.44;;;31.19;63.70
36798;BME280;22748;8.426;99.512;2023-05-22T08:22:46;100708.47;;;31.12;63.39
36798;BME280;22748;8.426;99.512;2023-05-22T08:25:17;100716.66;;;30.99;64.12
36798;BME280;22748;8.426;99.512;2023-05-22T08:27:48;100725.66;;;30.92;64.64
36798;BME280;22748;8.426;99.512;2023-05-22T08:30:19;100729.13;;;31.00;64.42
36798;BME280;22748;8.426;99.512;2023-05-22T08:32:49;100731.66;;;30.94;64.16
36798;BME280;22748;8.426;99.512;2023-05-22T08:35:21;100733.03;;;31.04;64.08
36798;BME280;22748;8.426;99.512;2023-05-22T08:37:53;100732.56;;;31.07;64.59
36798;BME280;22748;8.426;99.512;2023-05-22T08:40:28;100732.56;;;31.07;64.64
36798;BME280;22748;8.426;99.512;2023-05-22T08:43:02;100737.28;;;30.93;64.85
36798;BME280;22748;8.426;99.512;2023-05-22T08:45:32;100746.78;;;30.95;64.62
36798;BME280;22748;8.426;99.512;2023-05-22T08:48:04;100747.41;;;30.98;64.85
36798;BME280;22748;8.426;99.512;2023-05-22T08:50:39;100764.59;;;30.96;65.03
36798;BME280;22748;8.426;99.512;2023-05-22T08:53:14;100765.81;;;31.01;64.50
36798;BME280;22748;8.426;99.512;2023-05-22T08:55:44;100767.03;;;31.05;64.40
36798;BME280;22748;8.426;99.512;2023-05-22T08:58:15;100770.56;;;31.05;63.50
36798;BME280;22748;8.426;99.512;2023-05-22T09:00:47;100780.44;;;30.93;63.92
36798;BME280;22748;8.426;99.512;2023-05-22T09:03:17;100784.63;;;30.82;64.09
36798;BME280;22748;8.426;99.512;2023-05-22T09:05:51;100788.94;;;30.83;64.10
36798;BME280;22748;8.426;99.512;2023-05-22T09:08:28;100798.81;;;30.71;64.35
36798;BME280;22748;8.426;99.512;2023-05-22T09:10:59;100802.88;;;30.80;63.91
36798;BME280;22748;8.426;99.512;2023-05-22T09:13:30;100797.69;;;30.79;63.52
36798;BME280;22748;8.426;99.512;2023-05-22T09:15:59;100809.59;;;30.71;63.64
36798;BME280;22748;8.426;99.512;2023-05-22T09:18:38;100809.59;;;30.71;63.41
36798;BME280;22748;8.426;99.512;2023-05-22T09:21:12;100811.66;;;30.69;63.36
36798;BME280;22748;8.426;99.512;2023-05-22T09:24:09;100807.13;;;30.63;63.86
36798;BME280;22748;8.426;99.512;2023-05-22T09:26:39;100809.22;;;30.61;63.76
36798;BME280;22748;8.426;99.512;2023-05-22T09:29:10;100808.41;;;30.60;64.03
36798;BME280;22748;8.426;99.512;2023-05-22T09:31:43;100811.88;;;30.67;63.98
36798;BME280;22748;8.426;99.512;2023-05-22T09:34:14;100808.38;;;30.67;64.03
36798;BME280;22748;8.426;99.512;2023-05-22T09:36:44;100812.97;;;30.60;64.18
36798;BME280;22748;8.426;99.512;2023-05-22T09:39:17;100809.66;;;30.58;64.04
36798;BME280;22748;8.426;99.512;2023-05-22T09:41:49;100805.91;;;30.59;64.45
36798;BME280;22748;8.426;99.512;2023-05-22T09:44:19;100804.28;;;30.58;64.35
36798;BME280;22748;8.426;99.512;2023-05-22T09:46:54;100815.44;;;30.61;64.19
36798;BME280;22748;8.426;99.512;2023-05-22T09:49:25;100813.56;;;30.62;63.43
36798;BME280;22748;8.426;99.512;2023-05-22T09:51:56;100814.44;;;30.55;63.36
36798;BME280;22748;8.426;99.512;2023-05-22T09:54:30;100812.16;;;30.52;63.68
36798;BME280;22748;8.426;99.512;2023-05-22T09:57:05;100806.44;;;30.42;63.06
36798;BME280;22748;8.426;99.512;2023-05-22T09:59:44;100805.81;;;30.40;63.05
36798;BME280;22748;8.426;99.512;2023-05-22T10:02:23;100808.28;;;30.42;62.99
36798;BME280;22748;8.426;99.512;2023-05-22T10:05:00;100810.56;;;30.45;63.32
36798;BME280;22748;8.426;99.512;2023-05-22T10:07:37;100812.47;;;30.31;63.56
36798;BME280;22748;8.426;99.512;2023-05-22T10:10:12;100818.47;;;30.33;63.88
36798;BME280;22748;8.426;99.512;2023-05-22T10:12:50;100828.66;;;30.31;63.91
36798;BME280;22748;8.426;99.512;2023-05-22T10:15:22;100833.41;;;30.29;64.05
36798;BME280;22748;8.426;99.512;2023-05-22T10:17:54;100836.31;;;30.34;64.01
36798;BME280;22748;8.426;99.512;2023-05-22T10:20:25;100829.72;;;30.17;63.54
36798;BME280;22748;8.426;99.512;2023-05-22T10:22:57;100825.97;;;30.18;63.87
36798;BME280;22748;8.426;99.512;2023-05-22T10:25:30;100823.09;;;30.19;63.47
36798;BME280;22748;8.426;99.512;2023-05-22T10:28:00;100817.28;;;30.15;63.80
36798;BME280;22748;8.426;99.512;2023-05-22T10:30:40;100811.28;;;30.13;63.93
36798;BME280;22748;8.426;99.512;2023-05-22T10:33:15;100813.78;;;30.08;63.30
36798;BME280;22748;8.426;99.512;2023-05-22T10:35:51;100818.13;;;30.09;63.36
36798;BME280;22748;8.426;99.512;2023-05-22T10:38:36;100816.06;;;30.11;63.16
36798;BME280;22748;8.426;99.512;2023-05-22T10:41:13;100813.78;;;30.08;63.21
36798;BME280;22748;8.426;99.512;2023-05-22T10:43:49;100813.63;;;30.03;63.72
36798;BME280;22748;8.426;99.512;2023-05-22T10:46:20;100817.16;;;29.97;63.91
36798;BME280;22748;8.426;99.512;2023-05-22T10:48:51;100815.53;;;29.76;64.27
36798;BME280;22748;8.426;99.512;2023-05-22T10:51:22;100809.16;;;29.70;64.17
36798;BME280;22748;8.426;99.512;2023-05-22T10:53:56;100815.31;;;29.84;64.07
36798;BME280;22748;8.426;99.512;2023-05-22T10:56:35;100803.31;;;29.87;64.15
36798;BME280;22748;8.426;99.512;2023-05-22T10:59:07;100800.38;;;29.95;63.93
36798;BME280;22748;8.426;99.512;2023-05-22T11:01:36;100787.97;;;29.81;64.23
36798;BME280;22748;8.426;99.512;2023-05-22T11:04:15;100785.53;;;29.72;64.14
36798;BME280;22748;8.426;99.512;2023-05-22T11:06:48;100779.91;;;29.81;64.52
36798;BME280;22748;8.426;99.512;2023-05-22T11:09:31;100782.19;;;29.84;64.80
36798;BME280;22748;8.426;99.512;2023-05-22T11:12:24;100784.28;;;29.75;64.35
36798;BME280;22748;8.426;99.512;2023-05-22T11:14:57;100775.59;;;29.66;64.12
36798;BME280;22748;8.426;99.512;2023-05-22T11:17:29;100781.81;;;29.73;63.90
36798;BME280;22748;8.426;99.512;2023-05-22T11:20:03;100773.50;;;29.68;64.56
36798;BME280;22748;8.426;99.512;2023-05-22T11:22:35;100773.09;;;29.71;64.36
36798;BME280;22748;8.426;99.512;2023-05-22T11:25:07;100775.59;;;29.66;64.59
36798;BME280;22748;8.426;99.512;2023-05-22T11:27:55;100762.75;;;29.62;64.50
36798;BME280;22748;8.426;99.512;2023-05-22T11:30:26;100762.34;;;29.58;64.96
36798;BME280;22748;8.426;99.512;2023-05-22T11:32:58;100759.84;;;29.63;64.80
36798;BME280;22748;8.426;99.512;2023-05-22T11:35:31;100763.38;;;29.64;64.52
36798;BME280;22748;8.426;99.512;2023-05-22T11:38:04;100762.97;;;29.60;64.37
36798;BME280;22748;8.426;99.512;2023-05-22T11:40:35;100765.22;;;29.63;64.54
36798;BME280;22748;8.426;99.512;2023-05-22T11:43:07;100764.84;;;29.60;64.79
36798;BME280;22748;8.426;99.512;2023-05-22T11:45:39;100768.16;;;29.62;64.44
36798;BME280;22748;8.426;99.512;2023-05-22T11:48:11;100764.00;;;29.59;65.01
36798;BME280;22748;8.426;99.512;2023-05-22T11:50:42;100768.16;;;29.62;65.02
36798;BME280;22748;8.426;99.512;2023-05-22T11:53:14;100759.44;;;29.66;65.00
36798;BME280;22748;8.426;99.512;2023-05-22T11:55:45;100763.16;;;29.65;65.01
36798;BME280;22748;8.426;99.512;2023-05-22T11:58:32;100762.13;;;29.66;64.74
36798;BME280;22748;8.426;99.512;2023-05-22T12:01:08;100772.28;;;29.64;65.19
36798;BME280;22748;8.426;99.512;2023-05-22T12:03:38;100767.09;;;29.69;64.98
36798;BME280;22748;8.426;99.512;2023-05-22T12:06:11;100758.19;;;29.76;65.30
36798;BME280;22748;8.426;99.512;2023-05-22T12:08:41;100756.72;;;29.80;64.95
36798;BME280;22748;8.426;99.512;2023-05-22T12:11:12;100754.84;;;29.87;65.08
36798;BME280;22748;8.426;99.512;2023-05-22T12:13:45;100752.38;;;29.79;64.84
36798;BME280;22748;8.426;99.512;2023-05-22T12:16:20;100756.91;;;29.85;65.25
36798;BME280;22748;8.426;99.512;2023-05-22T12:18:52;100751.94;;;29.88;65.31
36798;BME280;22748;8.426;99.512;2023-05-22T12:21:25;100748.84;;;29.85;65.42
36798;BME280;22748;8.426;99.512;2023-05-22T12:23:55;100750.25;;;29.94;65.11
36798;BME280;22748;8.426;99.512;2023-05-22T12:26:26;100743.63;;;29.97;64.92
36798;BME280;22748;8.426;99.512;2023-05-22T12:28:57;100740.09;;;29.96;64.63
36798;BME280;22748;8.426;99.512;2023-05-22T12:31:29;100744.81;;;30.01;64.58
36798;BME280;22748;8.426;99.512;2023-05-22T12:34:05;100747.31;;;30.02;65.00
36798;BME280;22748;8.426;99.512;2023-05-22T12:36:38;100739.88;;;29.98;65.08
36798;BME280;22748;8.426;99.512;2023-05-22T12:39:15;100747.75;;;29.99;65.00
36798;BME280;22748;8.426;99.512;2023-05-22T12:41:45;100756.00;;;30.04;64.40
36798;BME280;22748;8.426;99.512;2023-05-22T12:44:21;100757.06;;;30.03;64.55
36798;BME280;22748;8.426;99.512;2023-05-22T12:46:52;100763.69;;;30.07;64.38
36798;BME280;22748;8.426;99.512;2023-05-22T12:49:24;100756.81;;;30.05;64.63
36798;BME280;22748;8.426;99.512;2023-05-22T12:51:54;100761.81;;;30.08;64.71
36798;BME280;22748;8.426;99.512;2023-05-22T12:54:23;100757.25;;;30.08;64.29
36798;BME280;22748;8.426;99.512;2023-05-22T12:56:54;100756.22;;;30.03;64.77
36798;BME280;22748;8.426;99.512;2023-05-22T12:59:31;100756.69;;;29.93;64.97
36798;BME280;22748;8.426;99.512;2023-05-22T13:02:04;100764.75;;;29.93;64.45
36798;BME280;22748;8.426;99.512;2023-05-22T13:04:33;100769.97;;;29.88;64.97
36798;BME280;22748;8.426;99.512;2023-05-22T13:07:04;100773.88;;;29.92;64.88
36798;BME280;22748;8.426;99.512;2023-05-22T13:09:34;100790.00;;;29.92;64.91
36798;BME280;22748;8.426;99.512;2023-05-22T13:12:05;100791.88;;;29.98;64.89
36798;BME280;22748;8.426;99.512;2023-05-22T13:14:38;100795.00;;;29.95;64.92
36798;BME280;22748;8.426;99.512;2023-05-22T13:17:09;100795.41;;;29.92;64.60
36798;BME280;22748;8.426;99.512;2023-05-22T13:19:41;100799.97;;;29.91;64.91
36798;BME280;22748;8.426;99.512;2023-05-22T13:22:11;100804.53;;;29.91;64.57
36798;BME280;22748;8.426;99.512;2023-05-22T13:24:43;100813.66;;;29.90;64.62